sensor_id;sensor_type;location;lat;lon;timestamp;pressure;altitude;pressure_sealevel;temperature;humidity
58295;BME280;45705;55.592;37.460;2023-09-19T00:01:35;99639.13;;;12.06;100.00
58295;BME280;45705;55.592;37.460;2023-09-19T00:04:01;99634.38;;;11.98;100.00
58295;BME280;45705;55.592;37.460;2023-09-19T00:06:29;99644.69;;;12.01;100.00
58295;BME280;45705;55.592;37.460;2023-09-19T00:08:57;99641.47;;;11.99;100.00
58295;BME280;45705;55.592;37.460;2023-09-19T00:11:26;99623.59;;;11.93;100.00
58295;BME280;45705;55.592;37.460;2023-09-19T00:13:53;99632.38;;;11.90;100.00
58295;BME280;45705;55.592;37.460;2023-09-19T00:16:19;99625.50;;;11.78;100.00
58295;BME280;45705;55.592;37.460;2023-09-19T00:18:45;99629.56;;;11.81;100.00
58295;BME280;45705;55.592;37.460;2023-09-19T00:21:11;99629.75;;;11.71;100.00
58295;BME280;45705;55.592;37.460;2023-09-19T00:23:38;99630.94;;;11.78;100.00
58295;BME280;45705;55.592;37.460;2023-09-19T00:26:03;99613.22;;;11.67;100.00
58295;BME280;45705;55.592;37.460;2023-09-19T00:28:30;99631.16;;;11.82;100.00
58295;BME280;45705;55.592;37.460;2023-09-19T00:30:57;99634.28;;;11.75;100.00
58295;BME280;45705;55.592;37.460;2023-09-19T00:33:28;99639.97;;;11.65;100.00
58295;BME280;45705;55.592;37.460;2023-09-19T00:35:57;99634.50;;;11.79;100.00
58295;BME280;45705;55.592;37.460;2023-09-19T00:38:23;99638.44;;;11.87;100.00
58295;BME280;45705;55.592;37.460;2023-09-19T00:40:54;99640.03;;;11.88;100.00
58295;BME280;45705;55.592;37.460;2023-09-19T00:43:20;99630.56;;;11.99;100.00
58295;BME280;45705;55.592;37.460;2023-09-19T00:45:51;99645.28;;;11.98;100.00
58295;BME280;45705;55.592;37.460;2023-09-19T00:48:18;99643.09;;;12.00;100.00
58295;BME280;45705;55.592;37.460;2023-09-19T00:50:46;99635.00;;;11.95;100.00
58295;BME280;45705;55.592;37.460;2023-09-19T00:53:20;99633.38;;;11.94;100.00
58295;BME280;45705;55.592;37.460;2023-09-19T00:55:49;99631.59;;;11.89;100.00
58295;BME280;45705;55.592;37.460;2023-09-19T00:58:19;99639.44;;;11.77;100.00
58295;BME280;45705;55.592;37.460;2023-09-19T01:00:48;99630.66;;;11.66;100.00
58295;BME280;45705;55.592;37.460;2023-09-19T01:03:14;99630.88;;;11.56;100.00
58295;BME280;45705;55.592;37.460;2023-09-19T01:05:41;99634.59;;;11.60;100.00
58295;BME280;45705;55.592;37.460;2023-09-19T01:08:08;99630.59;;;11.57;100.00
58295;BME280;45705;55.592;37.460;2023-09-19T01:10:36;99636.50;;;11.46;100.00
58295;BME280;45705;55.592;37.460;2023-09-19T01:18:52;99636.41;;;11.23;100.00
58295;BME280;45705;55.592;37.460;2023-09-19T01:21:46;99642.94;;;11.22;100.00
58295;BME280;45705;55.592;37.460;2023-09-19T01:29:47;99634.38;;;11.15;100.00
58295;BME280;45705;55.592;37.460;2023-09-19T01:32:17;99629.59;;;11.07;100.00
58295;BME280;45705;55.592;37.460;2023-09-19T01:34:51;99634.47;;;11.10;100.00
58295;BME280;45705;55.592;37.460;2023-09-19T01:37:20;99627.22;;;11.05;100.00
58295;BME280;45705;55.592;37.460;2023-09-19T01:39:53;99629.72;;;11.01;100.00
58295;BME280;45705;55.592;37.460;2023-09-19T01:42:35;99621.44;;;11.07;100.00
58295;BME280;45705;55.592;37.460;2023-09-19T01:45:11;99613.69;;;11.00;100.00
58295;BME280;45705;55.592;37.460;2023-09-19T01:47:43;99612.78;;;11.04;100.00
58295;BME280;45705;55.592;37.460;2023-09-19T01:50:32;99609.81;;;10.87;100.00
58295;BME280;45705;55.592;37.460;2023-09-19T01:53:05;99610.53;;;10.93;100.00
58295;BME280;45705;55.592;37.460;2023-09-19T01:55:45;99606.69;;;10.80;100.00
58295;BME280;45705;55.592;37.460;2023-09-19T01:58:21;99598.03;;;10.78;100.00
58295;BME280;45705;55.592;37.460;2023-09-19T02:00:55;99598.63;;;10.75;100.00
58295;BME280;45705;55.592;37.460;2023-09-19T02:03:21;99599.13;;;10.77;100.00
58295;BME280;45705;55.592;37.460;2023-09-19T02:05:51;99593.59;;;10.82;100.00
58295;BME280;45705;55.592;37.460;2023-09-19T02:08:21;99598.63;;;10.75;100.00
58295;BME280;45705;55.592;37.460;2023-09-19T02:10:51;99605.25;;;10.69;100.00
58295;BME280;45705;55.592;37.460;2023-09-19T02:13:21;99606.28;;;10.73;100.00
58295;BME280;45705;55.592;37.460;2023-09-19T02:15:47;99592.75;;;10.68;100.00
58295;BME280;45705;55.592;37.460;2023-09-19T02:18:13;99592.16;;;10.71;100.00
58295;BME280;45705;55.592;37.460;2023-09-19T02:20:42;99590.75;;;10.73;100.00
58295;BME280;45705;55.592;37.460;2023-09-19T02:23:10;99584.69;;;10.62;100.00
58295;BME280;45705;55.592;37.460;2023-09-19T02:25:36;99584.78;;;10.57;100.00
58295;BME280;45705;55.592;37.460;2023-09-19T02:28:04;99582.63;;;10.54;100.00
58295;BME280;45705;55.592;37.460;2023-09-19T02:30:31;99586.69;;;10.57;100.00
58295;BME280;45705;55.592;37.460;2023-09-19T02:32:58;99580.06;;;10.63;100.00
58295;BME280;45705;55.592;37.460;2023-09-19T02:35:28;99584.28;;;10.69;100.00
58295;BME280;45705;55.592;37.460;2023-09-19T02:37:54;99578.78;;;10.74;100.00
58295;BME280;45705;55.592;37.460;2023-09-19T02:40:19;99585.09;;;10.70;100.00
58295;BME280;45705;55.592;37.460;2023-09-19T02:42:47;99583.91;;;10.76;100.00
58295;BME280;45705;55.592;37.460;2023-09-19T02:45:16;99585.03;;;10.75;100.00
58295;BME280;45705;55.592;37.460;2023-09-19T02:47:44;99574.72;;;10.72;100.00
58295;BME280;45705;55.592;37.460;2023-09-19T02:50:10;99586.53;;;10.81;100.00
58295;BME280;45705;55.592;37.460;2023-09-19T02:52:43;99580.59;;;10.79;100.00
58295;BME280;45705;55.592;37.460;2023-09-19T02:55:13;99586.63;;;10.76;100.00
58295;BME280;45705;55.592;37.460;2023-09-19T02:57:50;99586.50;;;10.67;100.00
58295;BME280;45705;55.592;37.460;2023-09-19T03:00:18;99578.63;;;10.66;100.00
58295;BME280;45705;55.592;37.460;2023-09-19T03:02:49;99583.09;;;10.75;100.00
58295;BME280;45705;55.592;37.460;2023-09-19T03:05:15;99593.38;;;10.78;100.00
58295;BME280;45705;55.592;37.460;2023-09-19T03:07:41;99595.22;;;10.83;100.00
58295;BME280;45705;55.592;37.460;2023-09-19T03:10:09;99591.88;;;10.72;100.00
58295;BME280;45705;55.592;37.460;2023-09-19T03:12:35;99588.31;;;10.72;100.00
58295;BME280;45705;55.592;37.460;2023-09-19T03:15:02;99590.97;;;10.77;100.00
58295;BME280;45705;55.592;37.460;2023-09-19T03:17:31;99586.09;;;10.74;100.00
58295;BME280;45705;55.592;37.460;2023-09-19T03:19:58;99585.53;;;10.77;100.00
58295;BME280;45705;55.592;37.460;2023-09-19T03:22:26;99581.72;;;10.78;100.00
58295;BME280;45705;55.592;37.460;2023-09-19T03:24:52;99581.72;;;10.78;100.00
58295;BME280;45705;55.592;37.460;2023-09-19T03:27:18;99570.63;;;10.74;100.00
58295;BME280;45705;55.592;37.460;2023-09-19T03:29:44;99594.13;;;10.84;100.00
58295;BME280;45705;55.592;37.460;2023-09-19T03:32:10;99587.03;;;10.83;100.00
58295;BME280;45705;55.592;37.460;2023-09-19T03:34:37;99592.59;;;10.78;100.00
58295;BME280;45705;55.592;37.460;2023-09-19T03:37:08;99582.28;;;10.75;100.00
58295;BME280;45705;55.592;37.460;2023-09-19T03:39:35;99582.50;;;10.78;100.00
58295;BME280;45705;55.592;37.460;2023-09-19T03:42:02;99582.72;;;10.82;100.00
58295;BME280;45705;55.592;37.460;2023-09-19T03:44:30;99581.22;;;10.90;100.00
58295;BME280;45705;55.592;37.460;2023-09-19T03:46:56;99575.22;;;10.74;100.00
58295;BME280;45705;55.592;37.460;2023-09-19T03:49:22;99578.38;;;10.81;100.00
58295;BME280;45705;55.592;37.460;2023-09-19T03:51:48;99579.50;;;10.80;100.00
58295;BME280;45705;55.592;37.460;2023-09-19T03:54:14;99578.47;;;10.76;100.00
58295;BME280;45705;55.592;37.460;2023-09-19T03:56:40;99568.63;;;10.80;100.00
58295;BME280;45705;55.592;37.460;2023-09-19T03:59:06;99578.19;;;10.91;100.00
58295;BME280;45705;55.592;37.460;2023-09-19T04:01:34;99575.69;;;10.95;100.00
58295;BME280;45705;55.592;37.460;2023-09-19T04:04:00;99578.09;;;10.96;100.00
58295;BME280;45705;55.592;37.460;2023-09-19T04:06:35;99580.81;;;10.96;100.00
58295;BME280;45705;55.592;37.460;2023-09-19T04:09:02;99578.88;;;10.83;100.00
58295;BME280;45705;55.592;37.460;2023-09-19T04:11:32;99580.13;;;11.04;100.00
58295;BME280;45705;55.592;37.460;2023-09-19T04:13:59;99573.69;;;11.00;100.00
58295;BME280;45705;55.592;37.460;2023-09-19T04:16:25;99570.25;;;11.09;100.00
58295;BME280;45705;55.592;37.460;2023-09-19T04:18:50;99565.00;;;11.12;100.00
58295;BME280;45705;55.592;37.460;2023-09-19T04:21:17;99564.81;;;11.09;100.00
58295;BME280;45705;55.592;37.460;2023-09-19T04:23:43;99566.63;;;11.13;100.00
58295;BME280;45705;55.592;37.460;2023-09-19T04:26:09;99562.69;;;11.06;100.00
58295;BME280;45705;55.592;37.460;2023-09-19T04:28:35;99567.03;;;11.07;100.00
58295;BME280;45705;55.592;37.460;2023-09-19T04:31:03;99559.97;;;11.06;100.00
58295;BME280;45705;55.592;37.460;2023-09-19T04:33:29;99561.41;;;11.17;100.00
58295;BME280;45705;55.592;37.460;2023-09-19T04:35:56;99554.53;;;11.19;100.00
58295;BME280;45705;55.592;37.460;2023-09-19T04:38:21;99554.34;;;11.30;100.00
58295;BME280;45705;55.592;37.460;2023-09-19T04:40:47;99557.75;;;11.35;100.00
58295;BME280;45705;55.592;37.460;2023-09-19T04:43:13;99557.97;;;11.39;100.00
58295;BME280;45705;55.592;37.460;2023-09-19T04:45:41;99560.38;;;11.40;100.00
58295;BME280;45705;55.592;37.460;2023-09-19T04:48:06;99562.41;;;11.49;100.00
58295;BME280;45705;55.592;37.460;2023-09-19T04:50:34;99560.66;;;11.53;100.00
58295;BME280;45705;55.592;37.460;2023-09-19T04:53:00;99544.75;;;11.46;100.00
58295;BME280;45705;55.592;37.460;2023-09-19T04:55:27;99553.47;;;11.71;100.00
58295;BME280;45705;55.592;37.460;2023-09-19T04:57:53;99549.84;;;11.75;100.00
58295;BME280;45705;55.592;37.460;2023-09-19T05:00:20;99536.28;;;11.84;100.00
58295;BME280;45705;55.592;37.460;2023-09-19T05:02:49;99545.19;;;11.90;100.00
58295;BME280;45705;55.592;37.460;2023-09-19T05:05:16;99544.66;;;12.01;100.00
58295;BME280;45705;55.592;37.460;2023-09-19T05:07:43;99543.53;;;12.02;100.00
58295;BME280;45705;55.592;37.460;2023-09-19T05:10:11;99542.25;;;12.23;100.00
58295;BME280;45705;55.592;37.460;2023-09-19T05:12:38;99537.91;;;12.44;100.00
58295;BME280;45705;55.592;37.460;2023-09-19T05:15:04;99521.13;;;12.51;100.00
58295;BME280;45705;55.592;37.460;2023-09-19T05:17:33;99525.50;;;12.92;100.00
58295;BME280;45705;55.592;37.460;2023-09-19T05:20:00;99528.09;;;12.97;100.00
58295;BME280;45705;55.592;37.460;2023-09-19T05:22:41;99521.69;;;13.02;100.00
58295;BME280;45705;55.592;37.460;2023-09-19T05:25:07;99524.41;;;13.02;100.00
58295;BME280;45705;55.592;37.460;2023-09-19T05:27:33;99517.53;;;13.70;100.00
58295;BME280;45705;55.592;37.460;2023-09-19T05:29:59;99516.56;;;13.84;100.00
58295;BME280;45705;55.592;37.460;2023-09-19T05:32:25;99523.34;;;13.95;100.00
58295;BME280;45705;55.592;37.460;2023-09-19T05:34:51;99522.66;;;14.50;100.00
58295;BME280;45705;55.592;37.460;2023-09-19T05:37:22;99519.44;;;15.34;100.00
58295;BME280;45705;55.592;37.460;2023-09-19T05:39:49;99523.53;;;15.28;100.00
58295;BME280;45705;55.592;37.460;2023-09-19T05:42:15;99508.22;;;14.24;100.00
58295;BME280;45705;55.592;37.460;2023-09-19T05:44:41;99519.75;;;14.38;100.00
58295;BME280;45705;55.592;37.460;2023-09-19T05:47:07;99530.25;;;14.27;100.00
58295;BME280;45705;55.592;37.460;2023-09-19T05:49:35;99522.69;;;14.33;100.00
58295;BME280;45705;55.592;37.460;2023-09-19T05:52:07;99512.38;;;14.94;100.00
58295;BME280;45705;55.592;37.460;2023-09-19T05:54:33;99515.31;;;15.49;100.00
58295;BME280;45705;55.592;37.460;2023-09-19T05:57:03;99513.25;;;15.46;100.00
58295;BME280;45705;55.592;37.460;2023-09-19T05:59:28;99514.38;;;15.74;98.54
58295;BME280;45705;55.592;37.460;2023-09-19T06:01:55;99507.88;;;15.28;98.98
58295;BME280;45705;55.592;37.460;2023-09-19T06:04:21;99518.25;;;15.73;96.14
58295;BME280;45705;55.592;37.460;2023-09-19T06:06:47;99515.69;;;16.10;96.73
58295;BME280;45705;55.592;37.460;2023-09-19T06:09:14;99513.78;;;16.44;91.33
58295;BME280;45705;55.592;37.460;2023-09-19T06:11:42;99504.53;;;16.95;88.45
58295;BME280;45705;55.592;37.460;2023-09-19T06:14:08;99508.63;;;16.09;93.88
58295;BME280;45705;55.592;37.460;2023-09-19T06:16:36;99517.59;;;15.77;98.07
58295;BME280;45705;55.592;37.460;2023-09-19T06:19:03;99517.66;;;15.89;96.53
58295;BME280;45705;55.592;37.460;2023-09-19T06:21:32;99505.78;;;15.55;99.50
58295;BME280;45705;55.592;37.460;2023-09-19T06:23:58;99506.22;;;16.08;96.49
58295;BME280;45705;55.592;37.460;2023-09-19T06:26:24;99499.91;;;15.65;99.97
58295;BME280;45705;55.592;37.460;2023-09-19T06:28:53;99492.28;;;15.50;99.40
58295;BME280;45705;55.592;37.460;2023-09-19T06:31:18;99499.41;;;15.42;100.00
58295;BME280;45705;55.592;37.460;2023-09-19T06:33:46;99516.19;;;15.11;100.00
58295;BME280;45705;55.592;37.460;2023-09-19T06:36:12;99535.84;;;15.04;100.00
58295;BME280;45705;55.592;37.460;2023-09-19T06:38:38;99523.88;;;15.18;100.00
58295;BME280;45705;55.592;37.460;2023-09-19T06:41:05;99516.44;;;14.88;100.00
58295;BME280;45705;55.592;37.460;2023-09-19T06:43:31;99508.75;;;14.73;100.00
58295;BME280;45705;55.592;37.460;2023-09-19T06:45:58;99519.66;;;14.90;100.00
58295;BME280;45705;55.592;37.460;2023-09-19T06:48:25;99513.22;;;14.86;100.00
58295;BME280;45705;55.592;37.460;2023-09-19T06:50:55;99522.97;;;14.57;100.00
58295;BME280;45705;55.592;37.460;2023-09-19T06:53:21;99512.06;;;14.23;100.00
58295;BME280;45705;55.592;37.460;2023-09-19T06:55:50;99522.44;;;14.73;100.00
58295;BME280;45705;55.592;37.460;2023-09-19T06:58:16;99528.28;;;14.45;100.00
58295;BME280;45705;55.592;37.460;2023-09-19T07:00:42;99528.75;;;14.65;100.00
58295;BME280;45705;55.592;37.460;2023-09-19T07:03:08;99523.28;;;14.65;100.00
58295;BME280;45705;55.592;37.460;2023-09-19T07:05:38;99515.66;;;14.79;100.00
58295;BME280;45705;55.592;37.460;2023-09-19T07:08:08;99511.69;;;14.68;100.00
58295;BME280;45705;55.592;37.460;2023-09-19T07:10:39;99516.38;;;15.06;100.00
58295;BME280;45705;55.592;37.460;2023-09-19T07:13:15;99513.19;;;14.95;100.00
58295;BME280;45705;55.592;37.460;2023-09-19T07:15:43;99511.16;;;15.72;100.00
58295;BME280;45705;55.592;37.460;2023-09-19T07:18:16;99505.06;;;15.16;100.00
58295;BME280;45705;55.592;37.460;2023-09-19T07:20:45;99499.00;;;15.52;100.00
58295;BME280;45705;55.592;37.460;2023-09-19T07:23:19;99498.28;;;15.64;100.00
58295;BME280;45705;55.592;37.460;2023-09-19T07:25:47;99505.13;;;15.28;100.00
58295;BME280;45705;55.592;37.460;2023-09-19T07:28:14;99505.94;;;15.80;100.00
58295;BME280;45705;55.592;37.460;2023-09-19T07:30:40;99503.13;;;16.09;99.08
58295;BME280;45705;55.592;37.460;2023-09-19T07:33:07;99510.13;;;16.52;96.58
58295;BME280;45705;55.592;37.460;2023-09-19T07:35:38;99517.47;;;16.61;94.91
58295;BME280;45705;55.592;37.460;2023-09-19T07:38:08;99505.19;;;16.46;95.75
58295;BME280;45705;55.592;37.460;2023-09-19T07:40:35;99503.53;;;15.99;99.22
58295;BME280;45705;55.592;37.460;2023-09-19T07:43:02;99512.06;;;16.19;98.75
58295;BME280;45705;55.592;37.460;2023-09-19T07:45:29;99502.53;;;16.04;99.67
58295;BME280;45705;55.592;37.460;2023-09-19T07:47:55;99498.88;;;15.79;100.00
58295;BME280;45705;55.592;37.460;2023-09-19T07:50:21;99499.81;;;15.83;100.00
58295;BME280;45705;55.592;37.460;2023-09-19T07:52:48;99498.41;;;15.98;100.00
58295;BME280;45705;55.592;37.460;2023-09-19T07:55:16;99495.75;;;15.59;100.00
58295;BME280;45705;55.592;37.460;2023-09-19T07:57:43;99479.31;;;15.59;100.00
58295;BME280;45705;55.592;37.460;2023-09-19T08:00:10;99485.75;;;16.05;100.00
58295;BME280;45705;55.592;37.460;2023-09-19T08:02:40;99483.34;;;15.83;100.00
58295;BME280;45705;55.592;37.460;2023-09-19T08:05:07;99490.31;;;15.80;100.00
58295;BME280;45705;55.592;37.460;2023-09-19T08:07:38;99485.50;;;15.98;100.00
58295;BME280;45705;55.592;37.460;2023-09-19T08:10:05;99485.06;;;16.08;100.00
58295;BME280;45705;55.592;37.460;2023-09-19T08:12:36;99487.63;;;16.26;100.00
58295;BME280;45705;55.592;37.460;2023-09-19T08:15:02;99484.94;;;15.84;100.00
58295;BME280;45705;55.592;37.460;2023-09-19T08:17:28;99479.16;;;16.19;100.00
58295;BME280;45705;55.592;37.460;2023-09-19T08:19:54;99458.47;;;15.88;100.00
58295;BME280;45705;55.592;37.460;2023-09-19T08:22:20;99467.41;;;15.97;100.00
58295;BME280;45705;55.592;37.460;2023-09-19T08:24:47;99476.38;;;16.06;100.00
58295;BME280;45705;55.592;37.460;2023-09-19T08:27:13;99470.47;;;16.17;100.00
58295;BME280;45705;55.592;37.460;2023-09-19T08:29:39;99473.97;;;16.38;99.86
58295;BME280;45705;55.592;37.460;2023-09-19T08:32:04;99468.50;;;16.50;99.47
58295;BME280;45705;55.592;37.460;2023-09-19T08:34:30;99464.44;;;16.81;98.13
58295;BME280;45705;55.592;37.460;2023-09-19T08:36:58;99465.16;;;16.90;96.62
58295;BME280;45705;55.592;37.460;2023-09-19T08:39:27;99463.56;;;17.14;94.20
58295;BME280;45705;55.592;37.460;2023-09-19T08:41:59;99455.75;;;17.16;93.77
58295;BME280;45705;55.592;37.460;2023-09-19T08:44:27;99449.31;;;17.49;91.85
58295;BME280;45705;55.592;37.460;2023-09-19T08:47:06;99453.22;;;17.36;92.23
58295;BME280;45705;55.592;37.460;2023-09-19T08:52:32;99450.06;;;17.62;92.26
58295;BME280;45705;55.592;37.460;2023-09-19T08:55:03;99449.22;;;17.74;91.65
58295;BME280;45705;55.592;37.460;2023-09-19T08:57:33;99443.25;;;17.84;89.38
58295;BME280;45705;55.592;37.460;2023-09-19T09:00:02;99432.72;;;17.86;89.77
58295;BME280;45705;55.592;37.460;2023-09-19T09:02:38;99436.66;;;17.60;90.84
58295;BME280;45705;55.592;37.460;2023-09-19T09:05:11;99435.81;;;17.31;93.29
58295;BME280;45705;55.592;37.460;2023-09-19T09:07:37;99435.44;;;17.45;92.81
58295;BME280;45705;55.592;37.460;2023-09-19T09:10:04;99432.66;;;17.58;91.58
58295;BME280;45705;55.592;37.460;2023-09-19T09:12:30;99433.09;;;17.60;91.60
58295;BME280;45705;55.592;37.460;2023-09-19T09:14:56;99431.63;;;17.50;92.88
58295;BME280;45705;55.592;37.460;2023-09-19T09:17:26;99432.75;;;17.61;92.26
58295;BME280;45705;55.592;37.460;2023-09-19T09:19:53;99434.59;;;17.57;93.25
58295;BME280;45705;55.592;37.460;2023-09-19T09:22:18;99431.34;;;17.67;92.15
58295;BME280;45705;55.592;37.460;2023-09-19T09:24:53;99432.25;;;17.71;91.16
58295;BME280;45705;55.592;37.460;2023-09-19T09:27:20;99432.19;;;17.96;90.63
58295;BME280;45705;55.592;37.460;2023-09-19T09:29:47;99427.56;;;18.13;89.19
58295;BME280;45705;55.592;37.460;2023-09-19T09:32:24;99425.28;;;18.02;90.88
58295;BME280;45705;55.592;37.460;2023-09-19T09:37:20;99414.38;;;18.06;90.26
58295;BME280;45705;55.592;37.460;2023-09-19T09:39:57;99411.94;;;18.17;89.15
58295;BME280;45705;55.592;37.460;2023-09-19T09:42:31;99412.09;;;18.24;88.14
58295;BME280;45705;55.592;37.460;2023-09-19T09:45:27;99407.75;;;18.23;88.56
58295;BME280;45705;55.592;37.460;2023-09-19T09:47:59;99403.41;;;18.22;89.25
58295;BME280;45705;55.592;37.460;2023-09-19T09:50:33;99401.28;;;18.15;90.62
58295;BME280;45705;55.592;37.460;2023-09-19T09:53:26;99414.69;;;18.33;89.03
58295;BME280;45705;55.592;37.460;2023-09-19T09:56:11;99415.13;;;18.35;89.79
58295;BME280;45705;55.592;37.460;2023-09-19T10:01:14;99409.34;;;18.24;90.56
58295;BME280;45705;55.592;37.460;2023-09-19T10:03:42;99410.19;;;18.40;90.80
58295;BME280;45705;55.592;37.460;2023-09-19T10:06:14;99408.91;;;18.38;90.57
58295;BME280;45705;55.592;37.460;2023-09-19T10:09:03;99394.53;;;18.60;88.22
58295;BME280;45705;55.592;37.460;2023-09-19T10:12:07;99405.53;;;18.76;87.26
58295;BME280;45705;55.592;37.460;2023-09-19T10:14:38;99397.63;;;18.59;88.10
58295;BME280;45705;55.592;37.460;2023-09-19T10:17:05;99394.94;;;18.78;87.04
58295;BME280;45705;55.592;37.460;2023-09-19T10:19:46;99390.75;;;18.81;86.04
58295;BME280;45705;55.592;37.460;2023-09-19T10:22:19;99392.84;;;18.87;86.67
58295;BME280;45705;55.592;37.460;2023-09-19T10:24:49;99388.31;;;18.95;86.26
58295;BME280;45705;55.592;37.460;2023-09-19T10:27:18;99374.56;;;19.15;85.71
58295;BME280;45705;55.592;37.460;2023-09-19T10:29:48;99380.72;;;19.08;85.23
58295;BME280;45705;55.592;37.460;2023-09-19T10:32:16;99382.19;;;19.21;84.23
58295;BME280;45705;55.592;37.460;2023-09-19T10:34:46;99378.06;;;19.31;84.59
58295;BME280;45705;55.592;37.460;2023-09-19T10:37:12;99371.63;;;19.43;83.62
58295;BME280;45705;55.592;37.460;2023-09-19T10:39:39;99363.78;;;19.64;83.19
58295;BME280;45705;55.592;37.460;2023-09-19T10:42:07;99365.16;;;19.55;82.39
58295;BME280;45705;55.592;37.460;2023-09-19T10:44:37;99357.59;;;19.71;82.78
58295;BME280;45705;55.592;37.460;2023-09-19T10:47:07;99358.34;;;19.68;82.71
58295;BME280;45705;55.592;37.460;2023-09-19T10:49:34;99352.00;;;19.67;82.69
58295;BME280;45705;55.592;37.460;2023-09-19T10:52:00;99355.88;;;19.82;82.80
58295;BME280;45705;55.592;37.460;2023-09-19T10:54:32;99348.34;;;19.79;82.38
58295;BME280;45705;55.592;37.460;2023-09-19T10:57:02;99350.00;;;19.84;82.61
58295;BME280;45705;55.592;37.460;2023-09-19T10:59:30;99342.88;;;20.06;82.52
58295;BME280;45705;55.592;37.460;2023-09-19T11:02:16;99347.06;;;19.96;81.56
58295;BME280;45705;55.592;37.460;2023-09-19T11:04:43;99339.09;;;19.91;81.83
58295;BME280;45705;55.592;37.460;2023-09-19T11:07:12;99351.00;;;19.95;82.11
58295;BME280;45705;55.592;37.460;2023-09-19T11:09:54;99346.88;;;19.85;82.87
58295;BME280;45705;55.592;37.460;2023-09-19T11:26:43;99333.78;;;20.52;80.60
58295;BME280;45705;55.592;37.460;2023-09-19T11:29:26;99338.47;;;20.48;79.57
58295;BME280;45705;55.592;37.460;2023-09-19T11:31:54;99334.66;;;20.33;82.08
58295;BME280;45705;55.592;37.460;2023-09-19T11:34:38;99332.97;;;20.24;83.02
58295;BME280;45705;55.592;37.460;2023-09-19T11:39:38;99333.63;;;20.41;82.07
58295;BME280;45705;55.592;37.460;2023-09-19T11:48:18;99325.50;;;20.52;81.53
58295;BME280;45705;55.592;37.460;2023-09-19T11:50:45;99320.22;;;20.43;81.75
58295;BME280;45705;55.592;37.460;2023-09-19T11:53:13;99319.66;;;20.57;81.70
58295;BME280;45705;55.592;37.460;2023-09-19T11:55:43;99317.66;;;20.54;81.72
58295;BME280;45705;55.592;37.460;2023-09-19T11:58:12;99300.56;;;20.71;81.83
58295;BME280;45705;55.592;37.460;2023-09-19T12:00:42;99301.34;;;20.72;81.69
58295;BME280;45705;55.592;37.460;2023-09-19T12:03:11;99311.50;;;20.91;80.39
58295;BME280;45705;55.592;37.460;2023-09-19T12:05:37;99300.53;;;20.98;78.63
58295;BME280;45705;55.592;37.460;2023-09-19T12:08:04;99299.78;;;21.01;78.01
58295;BME280;45705;55.592;37.460;2023-09-19T12:10:34;99305.56;;;21.22;77.58
58295;BME280;45705;55.592;37.460;2023-09-19T12:13:08;99293.25;;;21.16;75.69
58295;BME280;45705;55.592;37.460;2023-09-19T12:15:35;99292.16;;;21.24;74.84
58295;BME280;45705;55.592;37.460;2023-09-19T12:18:04;99289.50;;;21.32;73.12
58295;BME280;45705;55.592;37.460;2023-09-19T12:20:43;99288.47;;;21.43;71.54
58295;BME280;45705;55.592;37.460;2023-09-19T12:23:13;99290.13;;;21.48;72.01
58295;BME280;45705;55.592;37.460;2023-09-19T12:25:43;99281.88;;;21.55;70.33
58295;BME280;45705;55.592;37.460;2023-09-19T12:28:20;99283.94;;;21.62;69.76
58295;BME280;45705;55.592;37.460;2023-09-19T12:30:48;99268.88;;;21.59;69.95
58295;BME280;45705;55.592;37.460;2023-09-19T12:33:18;99271.22;;;21.57;71.20
58295;BME280;45705;55.592;37.460;2023-09-19T12:35:47;99258.78;;;21.40;71.12
58295;BME280;45705;55.592;37.460;2023-09-19T12:38:25;99272.28;;;21.46;71.35
58295;BME280;45705;55.592;37.460;2023-09-19T12:40:57;99269.56;;;21.49;71.04
58295;BME280;45705;55.592;37.460;2023-09-19T12:43:28;99268.00;;;21.48;71.26
58295;BME280;45705;55.592;37.460;2023-09-19T12:45:58;99265.13;;;21.41;71.68
58295;BME280;45705;55.592;37.460;2023-09-19T12:48:26;99261.56;;;21.40;71.77
58295;BME280;45705;55.592;37.460;2023-09-19T12:51:05;99263.09;;;21.38;72.36
58295;BME280;45705;55.592;37.460;2023-09-19T12:53:37;99263.63;;;21.13;75.44
58295;BME280;45705;55.592;37.460;2023-09-19T12:56:09;99267.13;;;21.10;77.06
58295;BME280;45705;55.592;37.460;2023-09-19T13:01:20;99261.44;;;20.99;80.29
58295;BME280;45705;55.592;37.460;2023-09-19T13:06:37;99263.16;;;20.77;82.12
58295;BME280;45705;55.592;37.460;2023-09-19T13:09:12;99270.22;;;20.75;83.29
58295;BME280;45705;55.592;37.460;2023-09-19T13:11:40;99261.78;;;20.64;84.40
58295;BME280;45705;55.592;37.460;2023-09-19T13:14:18;99251.03;;;20.59;84.68
58295;BME280;45705;55.592;37.460;2023-09-19T13:17:04;99250.69;;;20.60;84.89
58295;BME280;45705;55.592;37.460;2023-09-19T13:25:14;99250.94;;;20.52;86.52
58295;BME280;45705;55.592;37.460;2023-09-19T13:27:51;99250.09;;;20.48;87.38
58295;BME280;45705;55.592;37.460;2023-09-19T13:30:22;99251.72;;;20.52;87.06
58295;BME280;45705;55.592;37.460;2023-09-19T13:32:48;99244.13;;;20.45;87.14
58295;BME280;45705;55.592;37.460;2023-09-19T13:35:15;99243.06;;;20.54;87.37
58295;BME280;45705;55.592;37.460;2023-09-19T13:37:41;99233.47;;;20.44;87.74
58295;BME280;45705;55.592;37.460;2023-09-19T13:40:09;99238.63;;;20.45;87.95
58295;BME280;45705;55.592;37.460;2023-09-19T13:42:36;99238.56;;;20.42;86.98
58295;BME280;45705;55.592;37.460;2023-09-19T13:45:03;99244.09;;;20.42;87.50
58295;BME280;45705;55.592;37.460;2023-09-19T13:47:33;99233.03;;;20.42;85.61
58295;BME280;45705;55.592;37.460;2023-09-19T13:50:01;99231.91;;;20.46;86.90